Terminal Aerodrome Forecast
Issued by NWS Corpus Christi, TX

Home | Current Version | Previous Version | Text Only | Print | Product List | Glossary On
Versions: 1 2 3 4 5 6 7 8 9 10 11 12 13 14 15 16 17 18
396
FTUS44 KCRP 271555 AAA
TAFCRP
TAF AMD
KCRP 271555Z 2716/2812 12015G21KT P6SM FEW050 FEW250
     FM280100 15013KT P6SM SCT012
      TEMPO 2809/2812 5SM BR BKN012=

USA.gov is the U.S. government's official web portal to all federal, state and local government web resources and services.